Ahwaz Airport
OIAW : now visible

Airfield :











YOU CAN JOIN US ON...

 
LOGIN :

Register | Disclaimer

   EN    FR    IT 

 









Legend :    VFR   Marginal VFR   IFR   Intensive IFR   Very Intensive IFR
Visi :
Ceiling :
>= 8 km
>= 3000ft
5 to 8 km
1000 to 3000 ft
1500m to 5 km
500 to 1000 ft
800 to 1500m
200 to 500 ft
< 800m
< 200 ft
Symbols :   Thunderstorms  Fog  Heavy snow  Heavy precipitations  Wind > 20 kt






- Airport Elevation : 66 ft
- IATA code : AWZ


OIAW - Ahwaz

CURRENT METAR :
  • 241730Z 14004KT 8000 VCTS SCT030CB SCT035 OVC080 20/16 Q1013

EXPIRED METARs :
  • 241700Z 26004KT 8000 VCTS SCT030CB SCT035 OVC080 21/15 Q1013
  • 241630Z 14002KT 8000 TSRA SCT030CB SCT035 OVC070 20/15 Q1013
  • 241600Z 32010KT 8000 TSRA SCT030CB SCT035 OVC070 24/13 Q1013
  • 241530Z 12006KT 8000 TS SCT030CB SCT035 OVC080 24/14 Q1010
  • 241500Z 12004KT 8000 SCT030CB SCT035 OVC080 24/14 Q1010

TAF TAF OIAW
Valid from the 24 at 12:00 until the 25 at 18:00 UTC


241100Z 2412/2518 06010KT 7000 FEW030CB SCT035 OVC090
BECMG 2413/2414 4000 SHRA SCT030CB SCT035 OVC090
TEMPO 2418/2503 1500 TSRA BR BKN020 SCT025CB SCT030 OVC080
BECMG 2506/2508 12014KT 7000 SCT030 OVC090
TEMPO 2506/2515 12016G26KT 4000 SA
BECMG 2514/2516 4000 RA BR SCT030CB SCT035 OVC080



MET'MAP, your aeronautical weather chart ! - Copyright ORBIFLY December 2007 - Disclaimer

ORBIFLY MET'MAP TEAM :

Programming & Development : Alexandra Zaïnal
Concept & original design : Baudouin d'Aumeries
Assistance for programming : Marc-Olivier Méhu
Technical & hardware support : Manuel Goepfert

Contact : metmap@orbifly.com




SOURCES & CREDITS :

   NOAA       Earth
Advisory